Time;durP1;ratioP1;P1;durP2;ratioP2;P2;SDS_P1;SDS_P2;PMS_P1;PMS_P2;Temp;Humidity;BMP_temperature;BMP_pressure;BME280_temperature;BME280_humidity;BME280_pressure;Samples;Min_cycle;Max_cycle;Signal;HPM_P1;HPM_P2
2022/08/10 00:01:18;;;;;;;1.70;1.60;;;23.50;39.30;;;;;;951904;150;27862;-77
2022/08/10 00:03:45;;;;;;;1.60;1.50;;;23.60;39.40;;;;;;952773;148;27341;-77
2022/08/10 00:06:11;;;;;;;1.67;1.57;;;23.80;39.60;;;;;;951708;150;27868;-77
2022/08/10 00:08:37;;;;;;;1.70;1.50;;;23.90;39.30;;;;;;952322;150;27399;-77
2022/08/10 00:11:04;;;;;;;1.70;1.60;;;24.00;39.30;;;;;;953362;148;27350;-77
2022/08/10 00:13:31;;;;;;;1.82;1.70;;;24.10;39.10;;;;;;953524;148;27296;-77
2022/08/10 00:15:57;;;;;;;1.30;1.30;;;24.30;39.00;;;;;;952838;149;27335;-77
2022/08/10 00:18:24;;;;;;;1.85;1.75;;;24.30;38.80;;;;;;953058;149;27332;-77
2022/08/10 00:20:50;;;;;;;2.50;1.82;;;24.40;38.60;;;;;;953148;148;27286;-77
2022/08/10 00:23:17;;;;;;;1.52;1.42;;;24.40;38.60;;;;;;952598;150;27318;-77
2022/08/10 00:25:44;;;;;;;1.95;1.57;;;24.50;38.60;;;;;;953114;148;27407;-77
2022/08/10 00:28:10;;;;;;;2.47;1.82;;;24.50;38.50;;;;;;953371;148;27399;-77
2022/08/10 00:30:37;;;;;;;1.80;1.70;;;24.50;38.50;;;;;;953026;149;27365;-77
2022/08/10 00:33:03;;;;;;;3.83;1.40;;;24.50;38.40;;;;;;953274;150;27833;-77
2022/08/10 00:35:30;;;;;;;1.85;1.62;;;24.50;38.50;;;;;;953063;148;27641;-77
2022/08/10 00:37:57;;;;;;;1.60;1.50;;;24.50;38.50;;;;;;952588;148;27824;-77
2022/08/10 00:40:23;;;;;;;2.25;1.65;;;24.50;38.60;;;;;;952679;148;27366;-77
2022/08/10 00:42:50;;;;;;;1.98;1.77;;;24.60;38.60;;;;;;953135;148;27341;-77
2022/08/10 00:45:16;;;;;;;1.65;1.27;;;24.60;38.60;;;;;;952596;148;27350;-77
2022/08/10 00:47:43;;;;;;;2.10;1.80;;;24.50;38.50;;;;;;952781;150;27295;-77
2022/08/10 00:50:09;;;;;;;2.25;1.87;;;24.50;38.50;;;;;;953018;150;27302;-77
2022/08/10 00:52:36;;;;;;;1.72;1.62;;;24.60;38.70;;;;;;953147;150;27313;-77
2022/08/10 00:55:03;;;;;;;2.20;1.80;;;24.60;38.80;;;;;;952797;148;27371;-77
2022/08/10 00:57:29;;;;;;;3.37;1.90;;;24.60;39.00;;;;;;942666;148;27419;-77
2022/08/10 00:59:56;;;;;;;4.37;2.00;;;24.60;39.60;;;;;;939935;150;27897;-77
2022/08/10 01:02:22;;;;;;;2.62;1.42;;;24.50;39.00;;;;;;939903;152;27293;-77
2022/08/10 01:04:49;;;;;;;3.25;1.60;;;24.40;39.00;;;;;;939483;150;27765;-77
2022/08/10 01:07:18;;;;;;;1.80;1.70;;;24.30;39.10;;;;;;939727;150;27850;-77
2022/08/10 01:10:07;;;;;;;4.20;1.60;;;24.10;39.20;;;;;;939499;151;27960;-77
2022/08/10 01:12:45;;;;;;;1.72;1.57;;;24.00;39.40;;;;;;939598;152;27410;-77
2022/08/10 01:15:24;;;;;;;4.20;1.67;;;23.80;39.30;;;;;;939808;151;27354;-77
2022/08/10 01:18:12;;;;;;;1.98;1.35;;;23.60;39.50;;;;;;939463;150;27991;-77
2022/08/10 01:20:47;;;;;;;1.52;1.42;;;23.50;39.70;;;;;;939748;151;27719;-77
2022/08/10 01:23:16;;;;;;;1.50;1.40;;;23.30;39.90;;;;;;939580;151;27426;-77
2022/08/10 01:25:50;;;;;;;2.37;2.17;;;23.10;40.20;;;;;;939446;151;28525;-77
2022/08/10 01:28:30;;;;;;;1.85;1.75;;;23.00;40.40;;;;;;939289;151;27422;-77
2022/08/10 01:30:57;;;;;;;1.62;1.52;;;22.80;40.60;;;;;;939511;151;27340;-77
2022/08/10 01:33:26;;;;;;;1.92;1.82;;;22.70;40.80;;;;;;939673;151;27257;-77
2022/08/10 01:35:58;;;;;;;2.75;2.05;;;22.60;41.10;;;;;;936392;149;27344;-77
2022/08/10 01:38:28;;;;;;;2.22;1.77;;;22.40;41.40;;;;;;939526;152;27301;-77
2022/08/10 01:41:00;;;;;;;1.60;1.50;;;22.30;41.50;;;;;;939350;150;27480;-77
2022/08/10 01:43:27;;;;;;;1.67;1.57;;;22.20;41.60;;;;;;935059;152;27367;-77
2022/08/10 01:45:53;;;;;;;2.05;1.60;;;22.10;41.90;;;;;;939829;150;27404;-77
2022/08/10 01:48:29;;;;;;;1.62;1.52;;;22.00;42.00;;;;;;939249;150;27335;-77
2022/08/10 01:50:55;;;;;;;3.15;1.60;;;21.90;42.20;;;;;;937380;152;27868;-77
2022/08/10 01:53:22;;;;;;;1.67;1.57;;;21.90;42.40;;;;;;935939;151;27317;-77
2022/08/10 01:55:49;;;;;;;2.22;2.00;;;21.80;42.50;;;;;;940795;151;27422;-77
2022/08/10 01:58:15;;;;;;;1.87;1.77;;;21.70;42.60;;;;;;946903;150;27463;-77
2022/08/10 02:00:42;;;;;;;2.20;2.00;;;21.60;42.90;;;;;;948125;151;27376;-77
2022/08/10 02:03:08;;;;;;;2.17;1.98;;;21.50;43.10;;;;;;947948;150;27336;-77
2022/08/10 02:05:35;;;;;;;2.05;1.92;;;21.50;43.20;;;;;;946899;151;27229;-77
2022/08/10 02:08:01;;;;;;;2.00;1.90;;;21.40;43.30;;;;;;947671;150;27461;-77
2022/08/10 02:10:28;;;;;;;2.10;1.90;;;21.30;43.50;;;;;;948381;150;27346;-77
2022/08/10 02:12:55;;;;;;;3.90;3.00;;;21.20;43.60;;;;;;947841;151;27335;-77
2022/08/10 02:15:21;;;;;;;3.12;1.90;;;21.10;43.70;;;;;;947980;150;27404;-77
2022/08/10 02:17:57;;;;;;;1.85;1.75;;;21.00;43.90;;;;;;947118;151;27822;-77
2022/08/10 02:20:23;;;;;;;2.40;2.20;;;21.00;44.10;;;;;;947252;150;27304;-77
2022/08/10 02:22:50;;;;;;;2.17;1.90;;;20.90;44.20;;;;;;948080;150;27331;-77
2022/08/10 02:25:17;;;;;;;2.52;2.05;;;20.80;44.40;;;;;;946526;150;27339;-77
2022/08/10 02:27:43;;;;;;;2.60;2.40;;;20.70;44.60;;;;;;947119;151;27810;-77
2022/08/10 02:30:10;;;;;;;2.17;2.08;;;20.60;44.80;;;;;;947209;151;27429;-77
2022/08/10 02:32:36;;;;;;;2.33;1.77;;;20.50;45.00;;;;;;947904;148;27333;-77
2022/08/10 02:35:03;;;;;;;2.42;2.10;;;20.40;45.10;;;;;;947724;150;27715;-76
2022/08/10 02:37:30;;;;;;;2.02;1.90;;;20.40;45.20;;;;;;947700;150;27351;-77
2022/08/10 02:39:56;;;;;;;2.60;2.17;;;20.30;45.30;;;;;;947044;151;28162;-77
2022/08/10 02:42:29;;;;;;;2.98;2.33;;;20.20;45.50;;;;;;948034;151;27921;-77
2022/08/10 02:45:01;;;;;;;2.98;2.22;;;20.20;45.70;;;;;;946371;151;27256;-77
2022/08/10 02:47:28;;;;;;;2.98;2.67;;;20.10;45.90;;;;;;947065;150;27686;-77
2022/08/10 02:49:54;;;;;;;2.50;2.30;;;20.00;46.10;;;;;;947489;151;27353;-77
2022/08/10 02:52:21;;;;;;;2.70;2.50;;;19.90;46.20;;;;;;928383;151;27416;-77
2022/08/10 02:54:51;;;;;;;2.27;2.08;;;19.90;46.30;;;;;;946852;150;27322;-77
2022/08/10 02:57:20;;;;;;;2.12;1.92;;;19.80;46.50;;;;;;945928;150;27485;-77
2022/08/10 02:59:49;;;;;;;2.33;2.10;;;19.70;46.60;;;;;;939618;151;27398;-76
2022/08/10 03:02:31;;;;;;;2.47;2.08;;;19.70;46.80;;;;;;939258;151;27448;-77
2022/08/10 03:04:57;;;;;;;2.70;2.50;;;19.60;46.90;;;;;;939748;151;27781;-77
2022/08/10 03:07:24;;;;;;;2.70;2.10;;;19.60;46.90;;;;;;947721;147;27312;-77
2022/08/10 03:09:50;;;;;;;2.60;2.40;;;19.50;47.20;;;;;;945471;149;27301;-77
2022/08/10 03:12:17;;;;;;;3.17;2.12;;;19.40;47.30;;;;;;944864;149;27398;-76
2022/08/10 03:14:44;;;;;;;2.60;2.12;;;19.40;47.50;;;;;;945142;149;27486;-77
2022/08/10 03:17:10;;;;;;;2.30;2.10;;;19.40;47.60;;;;;;944937;149;27364;-76
2022/08/10 03:19:37;;;;;;;2.72;2.17;;;19.30;47.60;;;;;;944763;149;27393;-76
2022/08/10 03:22:03;;;;;;;2.00;1.90;;;19.30;47.80;;;;;;945445;149;27316;-77
2022/08/10 03:24:30;;;;;;;2.30;2.10;;;19.20;47.90;;;;;;944905;150;27429;-76
2022/08/10 03:26:56;;;;;;;2.62;2.27;;;19.20;48.10;;;;;;944949;149;27455;-76
2022/08/10 03:29:23;;;;;;;2.87;2.02;;;19.20;48.20;;;;;;943829;149;27341;-76
2022/08/10 03:31:50;;;;;;;2.45;2.20;;;19.10;48.40;;;;;;945047;149;27321;-76
2022/08/10 03:34:16;;;;;;;2.00;1.90;;;19.10;48.50;;;;;;944556;149;27353;-76
2022/08/10 03:36:43;;;;;;;3.30;2.10;;;19.10;48.60;;;;;;944593;149;27281;-76
2022/08/10 03:39:09;;;;;;;2.02;1.92;;;19.10;48.80;;;;;;944942;149;27884;-76
2022/08/10 03:41:42;;;;;;;2.60;1.80;;;19.00;48.90;;;;;;944372;149;27441;-76
2022/08/10 03:44:09;;;;;;;2.12;1.95;;;19.00;49.00;;;;;;944152;149;27431;-76
2022/08/10 03:46:35;;;;;;;3.22;2.15;;;19.00;49.10;;;;;;945137;149;27354;-76
2022/08/10 03:49:02;;;;;;;3.35;2.30;;;19.00;49.20;;;;;;945707;149;27389;-75
2022/08/10 03:51:29;;;;;;;2.77;2.15;;;18.90;49.20;;;;;;946900;149;27841;-76
2022/08/10 03:53:55;;;;;;;2.33;2.20;;;18.90;49.40;;;;;;946204;149;27361;-76
2022/08/10 03:56:22;;;;;;;2.03;1.80;;;18.90;49.50;;;;;;944568;149;27384;-76
2022/08/10 03:58:48;;;;;;;1.77;1.65;;;18.80;49.60;;;;;;941347;149;27356;-76
2022/08/10 04:01:15;;;;;;;2.13;1.97;;;18.80;49.60;;;;;;946036;151;27963;-76
2022/08/10 04:03:42;;;;;;;2.00;1.90;;;18.80;49.70;;;;;;944640;148;27409;-77
2022/08/10 04:06:08;;;;;;;4.12;2.10;;;18.80;49.90;;;;;;944945;151;27317;-76
2022/08/10 04:08:35;;;;;;;2.50;2.27;;;18.80;50.10;;;;;;944291;149;27336;-76
2022/08/10 04:11:01;;;;;;;2.20;2.10;;;18.70;50.10;;;;;;946406;151;27299;-76
2022/08/10 04:13:28;;;;;;;2.30;2.08;;;18.70;50.20;;;;;;927193;154;27384;-76
2022/08/10 04:15:54;;;;;;;3.33;2.17;;;18.70;50.30;;;;;;947052;151;27369;-76
2022/08/10 04:18:21;;;;;;;2.67;2.45;;;18.70;50.40;;;;;;944922;149;27333;-76
2022/08/10 04:20:48;;;;;;;2.52;2.30;;;18.70;50.60;;;;;;944787;149;27340;-76
2022/08/10 04:23:23;;;;;;;2.35;2.08;;;18.70;50.60;;;;;;927284;154;29442;-76
2022/08/10 04:25:50;;;;;;;2.40;2.20;;;18.60;50.70;;;;;;943693;151;27422;-76
2022/08/10 04:28:17;;;;;;;2.30;2.20;;;18.60;50.70;;;;;;944835;149;27349;-76
2022/08/10 04:30:43;;;;;;;2.30;2.12;;;18.60;50.80;;;;;;944115;151;27398;-76
2022/08/10 04:33:10;;;;;;;2.67;2.40;;;18.60;50.90;;;;;;932573;151;27404;-76
2022/08/10 04:35:36;;;;;;;4.62;2.17;;;18.60;51.00;;;;;;930640;151;27348;-76
2022/08/10 04:38:03;;;;;;;2.60;2.40;;;18.60;51.10;;;;;;928216;151;28540;-76
2022/08/10 04:40:30;;;;;;;2.50;2.08;;;18.60;51.80;;;;;;927427;151;27472;-77
2022/08/10 04:42:59;;;;;;;2.33;2.13;;;18.60;51.40;;;;;;928891;151;27350;-76
2022/08/10 04:45:25;;;;;;;2.10;1.90;;;18.60;51.50;;;;;;939034;149;27362;-76
2022/08/10 04:47:52;;;;;;;3.20;2.30;;;18.70;51.50;;;;;;939432;150;27342;-76
2022/08/10 04:50:18;;;;;;;6.65;2.58;;;18.70;51.60;;;;;;927137;152;28049;-76
2022/08/10 04:52:45;;;;;;;2.50;2.30;;;18.70;51.70;;;;;;946125;151;27270;-76
2022/08/10 04:55:12;;;;;;;2.62;2.42;;;18.80;51.90;;;;;;946482;149;28955;-76
2022/08/10 04:57:38;;;;;;;2.37;2.17;;;18.90;52.00;;;;;;944691;151;27378;-76
2022/08/10 05:00:05;;;;;;;2.10;2.00;;;18.90;51.90;;;;;;944527;148;27478;-76
2022/08/10 05:02:31;;;;;;;2.62;2.40;;;19.00;51.90;;;;;;929204;154;27330;-76
2022/08/10 05:04:58;;;;;;;2.60;2.10;;;19.10;51.90;;;;;;929479;151;27349;-76
2022/08/10 05:07:24;;;;;;;2.95;1.98;;;19.30;52.20;;;;;;938293;151;27398;-76
2022/08/10 05:09:53;;;;;;;2.15;2.00;;;19.50;52.40;;;;;;929937;152;27423;-76
2022/08/10 05:12:18;;;;;;;2.70;1.92;;;19.80;52.70;;;;;;929900;153;27372;-77
2022/08/10 05:14:44;;;;;;;2.42;2.00;;;20.20;52.90;;;;;;929821;154;27419;-77
2022/08/10 05:17:11;;;;;;;2.15;2.05;;;20.70;52.90;;;;;;930134;153;27298;-77
2022/08/10 05:19:37;;;;;;;3.72;2.05;;;21.20;52.70;;;;;;944940;151;27249;-77
2022/08/10 05:22:04;;;;;;;3.22;2.05;;;21.90;52.50;;;;;;947517;151;27419;-77
2022/08/10 05:24:31;;;;;;;2.10;1.90;;;22.60;52.00;;;;;;945873;151;27327;-77
2022/08/10 05:26:57;;;;;;;1.82;1.70;;;23.30;51.40;;;;;;928014;154;27355;-77
2022/08/10 05:29:24;;;;;;;2.12;1.92;;;24.00;50.70;;;;;;944988;149;27422;-77
2022/08/10 05:31:50;;;;;;;3.25;1.52;;;24.70;50.10;;;;;;946251;151;28469;-77
2022/08/10 05:34:17;;;;;;;2.62;2.10;;;25.40;49.30;;;;;;944743;151;27399;-77
2022/08/10 05:36:44;;;;;;;2.80;1.75;;;26.10;48.60;;;;;;946241;149;27393;-77
2022/08/10 05:39:10;;;;;;;4.37;2.12;;;26.80;48.10;;;;;;928819;151;27393;-77
2022/08/10 05:41:37;;;;;;;1.82;1.72;;;27.50;47.20;;;;;;927864;154;28565;-77
2022/08/10 05:44:03;;;;;;;2.87;1.95;;;28.20;46.50;;;;;;939934;151;27657;-77
2022/08/10 05:46:30;;;;;;;3.65;2.17;;;28.90;45.70;;;;;;946631;151;27412;-77
2022/08/10 05:48:57;;;;;;;2.33;1.80;;;29.60;44.90;;;;;;927776;154;27373;-77
2022/08/10 05:51:24;;;;;;;2.08;1.87;;;30.20;44.10;;;;;;945758;151;27328;-75
2022/08/10 05:53:50;;;;;;;1.90;1.52;;;30.90;43.30;;;;;;944272;151;27338;-75
2022/08/10 05:56:16;;;;;;;2.15;1.70;;;31.40;42.40;;;;;;928804;152;27323;-75
2022/08/10 05:58:43;;;;;;;1.82;1.72;;;31.90;41.50;;;;;;944573;151;27302;-75
2022/08/10 06:01:09;;;;;;;3.00;2.02;;;32.40;40.90;;;;;;947259;147;27355;-75
2022/08/10 06:03:36;;;;;;;1.92;1.75;;;32.90;40.30;;;;;;947920;147;27332;-76
2022/08/10 06:06:03;;;;;;;2.22;1.50;;;33.30;39.80;;;;;;931311;150;27464;-75
2022/08/10 06:08:32;;;;;;;2.30;1.85;;;33.70;39.30;;;;;;931057;150;28124;-76
2022/08/10 06:10:59;;;;;;;2.12;1.70;;;34.20;38.70;;;;;;947463;147;27310;-75
2022/08/10 06:16:11;;;;;;;1.65;1.55;;;35.10;37.60;;;;;;948516;147;27440;-75
2022/08/10 06:18:37;;;;;;;2.75;1.98;;;35.50;37.30;;;;;;947151;148;27364;-75
2022/08/10 06:21:04;;;;;;;1.95;1.75;;;35.90;36.70;;;;;;948288;147;27440;-75
2022/08/10 06:23:30;;;;;;;1.85;1.60;;;36.20;36.30;;;;;;948722;147;26217;-75
2022/08/10 06:25:57;;;;;;;1.72;1.62;;;36.50;35.90;;;;;;948493;148;26353;-75
2022/08/10 06:28:24;;;;;;;1.80;1.70;;;37.00;35.50;;;;;;949448;147;26342;-76
2022/08/10 06:30:50;;;;;;;1.80;1.70;;;37.40;34.90;;;;;;948646;147;26251;-76
2022/08/10 06:33:17;;;;;;;2.47;1.87;;;37.80;34.40;;;;;;948025;148;26271;-76
2022/08/10 06:35:43;;;;;;;1.70;1.60;;;38.20;33.80;;;;;;931838;151;27325;-76
2022/08/10 06:38:10;;;;;;;1.80;1.70;;;38.60;33.40;;;;;;947366;147;27341;-76
2022/08/10 06:40:36;;;;;;;1.80;1.70;;;39.00;32.90;;;;;;948202;147;26256;-76
2022/08/10 06:43:03;;;;;;;1.92;1.72;;;39.30;32.40;;;;;;933190;150;26325;-76
2022/08/10 06:45:30;;;;;;;1.55;1.45;;;39.70;32.10;;;;;;943827;149;27366;-76
2022/08/10 06:48:02;;;;;;;2.10;1.90;;;40.10;32.30;;;;;;946061;146;26321;-76
2022/08/10 06:50:46;;;;;;;1.70;1.45;;;40.40;31.10;;;;;;948150;147;27324;-76
2022/08/10 06:53:15;;;;;;;1.72;1.45;;;40.80;30.60;;;;;;941128;149;26244;-76
2022/08/10 06:55:42;;;;;;;3.40;1.80;;;41.20;30.30;;;;;;947286;149;26257;-76
2022/08/10 06:58:08;;;;;;;2.70;1.77;;;41.50;29.90;;;;;;940870;149;26265;-76
2022/08/10 07:00:35;;;;;;;3.05;1.90;;;41.90;29.60;;;;;;946229;150;26275;-76
2022/08/10 07:03:02;;;;;;;2.00;1.80;;;42.20;29.10;;;;;;943776;148;26849;-76
2022/08/10 07:05:28;;;;;;;1.80;1.70;;;42.60;28.90;;;;;;948177;147;26201;-76
2022/08/10 07:07:55;;;;;;;3.83;1.90;;;43.00;28.50;;;;;;927081;150;26280;-77
2022/08/10 07:10:21;;;;;;;1.70;1.60;;;43.30;28.20;;;;;;942621;148;28559;-77
2022/08/10 07:12:48;;;;;;;1.70;1.60;;;43.70;27.90;;;;;;926605;150;26241;-76
2022/08/10 07:15:16;;;;;;;1.72;1.62;;;44.00;27.70;;;;;;944985;148;26239;-77
2022/08/10 07:17:41;;;;;;;1.65;1.50;;;44.30;27.40;;;;;;942899;148;26214;-77
2022/08/10 07:20:08;;;;;;;1.72;1.25;;;44.60;27.00;;;;;;943704;148;26254;-77
2022/08/10 07:22:35;;;;;;;2.45;1.80;;;44.90;26.80;;;;;;926568;150;26310;-77
2022/08/10 07:25:01;;;;;;;1.60;1.50;;;45.20;26.40;;;;;;942929;148;26162;-77
2022/08/10 07:27:28;;;;;;;2.08;1.60;;;45.50;26.20;;;;;;943100;148;26268;-77
2022/08/10 07:29:54;;;;;;;2.00;1.50;;;45.80;26.10;;;;;;949038;147;26185;-77
2022/08/10 07:32:21;;;;;;;1.72;1.27;;;46.10;25.80;;;;;;929336;150;26258;-77
2022/08/10 07:34:47;;;;;;;1.65;1.55;;;46.40;25.50;;;;;;948234;148;26341;-77
2022/08/10 07:37:14;;;;;;;1.47;1.40;;;46.70;25.10;;;;;;947709;147;26270;-77
2022/08/10 07:39:40;;;;;;;2.95;1.27;;;47.00;24.90;;;;;;927417;150;26347;-77
2022/08/10 07:42:07;;;;;;;3.05;1.45;;;47.10;24.80;;;;;;942344;149;26400;-77
2022/08/10 07:44:34;;;;;;;1.50;1.42;;;47.30;24.50;;;;;;943221;151;26221;-77
2022/08/10 07:47:02;;;;;;;2.85;1.60;;;47.50;24.40;;;;;;944013;149;26265;-77
2022/08/10 07:49:27;;;;;;;1.70;1.60;;;47.70;24.10;;;;;;942552;149;26276;-77
2022/08/10 07:51:55;;;;;;;1.42;1.32;;;47.90;23.90;;;;;;942617;149;26198;-77
2022/08/10 07:54:20;;;;;;;1.47;1.30;;;48.00;23.70;;;;;;942670;149;26245;-77
2022/08/10 07:56:47;;;;;;;2.75;1.47;;;48.30;23.70;;;;;;942860;149;26233;-78
2022/08/10 07:59:16;;;;;;;2.33;1.32;;;48.40;23.50;;;;;;942622;149;26275;-77
2022/08/10 08:01:42;;;;;;;1.50;1.40;;;48.70;23.40;;;;;;943186;149;26309;-77
2022/08/10 08:04:09;;;;;;;1.45;1.35;;;48.90;23.20;;;;;;944201;151;26233;-77
2022/08/10 08:06:35;;;;;;;1.25;1.25;;;49.10;22.90;;;;;;944029;151;26345;-77
2022/08/10 08:09:02;;;;;;;1.25;1.20;;;49.20;22.80;;;;;;944193;151;26402;-78
2022/08/10 08:11:29;;;;;;;1.40;1.30;;;49.50;22.70;;;;;;944423;151;26281;-78
2022/08/10 08:13:55;;;;;;;1.30;1.20;;;49.60;22.60;;;;;;944640;151;28082;-78
2022/08/10 08:16:22;;;;;;;1.62;1.20;;;49.70;22.30;;;;;;943442;151;26248;-78
2022/08/10 08:18:48;;;;;;;1.17;1.15;;;49.90;22.20;;;;;;943735;151;26772;-78
2022/08/10 08:21:15;;;;;;;1.65;1.17;;;50.10;22.00;;;;;;944153;151;26326;-78
2022/08/10 08:23:42;;;;;;;1.35;1.22;;;50.20;21.80;;;;;;944614;151;26267;-78
2022/08/10 08:26:08;;;;;;;1.45;1.35;;;50.30;21.70;;;;;;944956;151;26374;-78
2022/08/10 08:28:35;;;;;;;1.32;1.25;;;50.40;21.70;;;;;;928057;152;26252;-78
2022/08/10 08:31:01;;;;;;;1.30;1.20;;;50.60;21.80;;;;;;939524;151;26328;-78
2022/08/10 08:33:28;;;;;;;1.77;1.17;;;50.80;21.40;;;;;;929995;154;26316;-78
2022/08/10 08:35:55;;;;;;;1.65;1.07;;;51.00;21.30;;;;;;930384;151;26308;-78
2022/08/10 08:38:21;;;;;;;2.37;1.15;;;51.20;21.10;;;;;;929264;154;26297;-78
2022/08/10 08:40:48;;;;;;;1.12;1.12;;;51.20;20.90;;;;;;931639;151;26282;-78
2022/08/10 08:43:27;;;;;;;0.90;0.90;;;51.30;20.70;;;;;;944694;148;26591;-78
2022/08/10 08:46:13;;;;;;;0.72;0.72;;;51.40;20.60;;;;;;927483;154;26368;-78
2022/08/10 08:49:08;;;;;;;1.07;1.05;;;51.40;20.50;;;;;;925509;154;26363;-78
2022/08/10 08:51:43;;;;;;;1.15;1.10;;;51.40;20.20;;;;;;920080;154;26374;-78
2022/08/10 08:54:41;;;;;;;2.30;0.90;;;51.20;20.20;;;;;;928514;153;26248;-78
2022/08/10 08:57:07;;;;;;;1.32;0.80;;;51.20;20.20;;;;;;917837;154;26411;-78
2022/08/10 08:59:46;;;;;;;1.02;0.65;;;51.10;20.10;;;;;;928878;154;26263;-79
2022/08/10 09:02:52;;;;;;;0.90;0.90;;;51.00;19.70;;;;;;946041;147;26268;-79
2022/08/10 09:05:35;;;;;;;0.85;0.68;;;50.80;19.70;;;;;;939744;149;26256;-80
2022/08/10 09:08:10;;;;;;;0.65;0.65;;;50.40;19.70;;;;;;940250;149;26377;-80
2022/08/10 09:11:10;;;;;;;1.17;0.90;;;50.00;19.70;;;;;;938930;149;26253;-80
2022/08/10 09:13:52;;;;;;;1.15;0.90;;;49.60;19.70;;;;;;947115;147;26225;-79
2022/08/10 09:16:43;;;;;;;1.00;0.70;;;49.30;19.70;;;;;;948837;147;26233;-79
2022/08/10 09:19:24;;;;;;;0.80;0.80;;;48.90;19.80;;;;;;948466;147;26221;-80
2022/08/10 09:21:51;;;;;;;0.93;0.90;;;48.60;19.80;;;;;;930354;147;26308;-79
2022/08/10 09:24:35;;;;;;;0.90;0.60;;;48.30;19.90;;;;;;930023;150;26247;-79
2022/08/10 09:27:02;;;;;;;0.70;0.70;;;48.00;19.80;;;;;;946268;148;26683;-79
2022/08/10 09:29:31;;;;;;;0.95;0.90;;;47.70;19.70;;;;;;946555;148;26260;-79
2022/08/10 09:32:07;;;;;;;0.75;0.75;;;47.20;19.90;;;;;;946064;147;26366;-79
2022/08/10 09:34:35;;;;;;;0.78;0.78;;;46.90;20.10;;;;;;948195;147;26349;-79
2022/08/10 09:37:06;;;;;;;1.17;1.07;;;46.70;20.00;;;;;;932382;148;26212;-79
2022/08/10 09:39:32;;;;;;;1.27;1.17;;;46.40;20.00;;;;;;930931;150;26364;-79
2022/08/10 09:42:08;;;;;;;0.93;0.93;;;46.10;20.00;;;;;;930533;150;26351;-79
2022/08/10 09:44:44;;;;;;;1.12;1.00;;;45.70;19.90;;;;;;939908;149;26299;-79
2022/08/10 09:47:25;;;;;;;2.52;1.35;;;45.40;20.10;;;;;;939633;149;26306;-79
2022/08/10 09:50:10;;;;;;;1.32;0.98;;;45.10;20.30;;;;;;930172;151;26282;-79
2022/08/10 09:53:04;;;;;;;3.02;1.75;;;44.90;20.40;;;;;;948267;148;26213;-79
2022/08/10 09:55:52;;;;;;;0.80;0.80;;;44.70;20.60;;;;;;945639;148;26274;-78
2022/08/10 09:58:37;;;;;;;2.58;0.98;;;44.40;20.50;;;;;;939919;149;27115;-78
2022/08/10 10:01:06;;;;;;;1.20;1.10;;;44.10;20.30;;;;;;947464;151;26302;-75
2022/08/10 10:03:33;;;;;;;3.02;1.05;;;43.50;20.40;;;;;;939143;150;26413;-75
2022/08/10 10:06:09;;;;;;;1.27;1.17;;;43.00;20.30;;;;;;937678;150;26374;-75
2022/08/10 10:09:02;;;;;;;1.27;1.17;;;42.30;20.50;;;;;;927427;150;27418;-75
2022/08/10 10:11:47;;;;;;;2.55;1.10;;;41.70;20.70;;;;;;923571;150;26278;-75
2022/08/10 10:14:15;;;;;;;1.32;1.02;;;41.00;20.90;;;;;;950271;147;27652;-78
2022/08/10 10:16:43;;;;;;;0.70;0.70;;;40.50;21.10;;;;;;950182;147;26158;-77
2022/08/10 10:19:28;;;;;;;0.93;0.90;;;40.10;21.20;;;;;;947301;147;26264;-77
2022/08/10 10:22:25;;;;;;;2.27;1.10;;;39.70;21.30;;;;;;919361;150;26408;-77
2022/08/10 10:25:19;;;;;;;2.37;1.20;;;39.20;21.50;;;;;;940670;149;27366;-77
2022/08/10 10:27:47;;;;;;;1.25;1.02;;;38.70;21.60;;;;;;940693;149;27841;-77
2022/08/10 10:30:12;;;;;;;1.10;1.10;;;38.20;21.80;;;;;;941388;149;27417;-77
2022/08/10 10:32:44;;;;;;;1.57;1.10;;;37.80;22.00;;;;;;938862;149;27349;-77
2022/08/10 10:35:17;;;;;;;1.20;1.20;;;37.40;22.10;;;;;;945874;147;27335;-77
2022/08/10 10:37:43;;;;;;;3.02;1.30;;;37.00;22.30;;;;;;926480;150;27369;-77
2022/08/10 10:40:10;;;;;;;1.27;1.07;;;36.60;22.80;;;;;;947931;147;27352;-77
2022/08/10 10:42:48;;;;;;;1.17;1.05;;;36.30;22.90;;;;;;942936;148;27379;-77
2022/08/10 10:45:36;;;;;;;1.95;1.20;;;36.10;23.20;;;;;;927008;150;27356;-77
2022/08/10 10:48:15;;;;;;;1.32;1.22;;;35.90;23.40;;;;;;941260;149;27437;-77
2022/08/10 10:50:51;;;;;;;2.15;1.32;;;35.70;23.60;;;;;;941265;149;27370;-77
2022/08/10 10:53:17;;;;;;;1.12;1.10;;;35.50;23.60;;;;;;940996;149;28702;-77
2022/08/10 10:56:14;;;;;;;1.40;1.30;;;35.40;23.60;;;;;;941237;149;27295;-77
2022/08/10 10:59:11;;;;;;;1.55;1.10;;;35.20;23.80;;;;;;941319;149;27331;-77
2022/08/10 11:01:47;;;;;;;4.65;1.40;;;35.00;23.80;;;;;;941888;149;27292;-77
2022/08/10 11:04:31;;;;;;;1.60;1.20;;;34.70;24.00;;;;;;931568;149;27435;-77
2022/08/10 11:07:22;;;;;;;1.40;1.30;;;34.50;24.20;;;;;;928015;154;27358;-77
2022/08/10 11:09:55;;;;;;;1.40;1.30;;;34.20;24.10;;;;;;944428;148;27295;-77
2022/08/10 11:12:24;;;;;;;1.30;1.20;;;34.00;24.30;;;;;;944645;151;27339;-77
2022/08/10 11:14:54;;;;;;;1.50;1.40;;;33.80;24.60;;;;;;928244;154;27349;-77
2022/08/10 11:17:32;;;;;;;1.37;1.20;;;33.60;24.60;;;;;;928801;153;27334;-77
2022/08/10 11:20:11;;;;;;;3.90;1.20;;;33.50;24.80;;;;;;929180;153;27416;-77
2022/08/10 11:22:59;;;;;;;1.52;1.35;;;33.40;24.70;;;;;;929259;153;27472;-77
2022/08/10 11:25:28;;;;;;;1.20;1.10;;;33.40;24.90;;;;;;928896;153;27357;-77
2022/08/10 11:28:12;;;;;;;1.40;1.10;;;33.30;25.10;;;;;;929486;151;27342;-77
2022/08/10 11:30:45;;;;;;;1.25;1.15;;;33.20;25.10;;;;;;927798;154;27327;-77
2022/08/10 11:33:30;;;;;;;1.35;1.20;;;33.30;25.10;;;;;;928379;154;27338;-77
2022/08/10 11:35:56;;;;;;;1.27;1.17;;;33.30;25.20;;;;;;927875;151;27309;-77
2022/08/10 11:38:42;;;;;;;1.27;1.17;;;33.30;25.20;;;;;;926318;154;27407;-77
2022/08/10 11:41:17;;;;;;;1.30;1.20;;;33.30;25.10;;;;;;925239;154;27857;-77
2022/08/10 11:43:43;;;;;;;1.30;1.20;;;33.30;25.20;;;;;;929119;154;27325;-77
2022/08/10 11:46:25;;;;;;;1.47;1.37;;;33.30;25.30;;;;;;927514;153;27444;-77
2022/08/10 11:49:09;;;;;;;1.40;1.27;;;33.20;25.50;;;;;;927585;153;27363;-77
2022/08/10 11:51:45;;;;;;;1.22;1.12;;;33.30;25.40;;;;;;927761;153;27478;-77
2022/08/10 11:54:14;;;;;;;1.65;1.40;;;33.20;25.40;;;;;;942848;151;27419;-77
2022/08/10 11:56:46;;;;;;;1.12;1.02;;;33.20;25.40;;;;;;926642;153;27341;-77
2022/08/10 12:01:57;;;;;;;1.20;1.10;;;33.20;25.80;;;;;;945238;148;27819;-77
2022/08/10 12:04:24;;;;;;;3.40;1.50;;;33.20;25.30;;;;;;929101;151;27837;-77
2022/08/10 12:06:52;;;;;;;3.62;1.27;;;33.20;25.80;;;;;;946096;148;27284;-78
2022/08/10 12:09:17;;;;;;;0.90;0.90;;;33.20;25.40;;;;;;944564;148;27342;-78
2022/08/10 12:11:44;;;;;;;1.30;1.20;;;33.20;25.60;;;;;;936932;151;27271;-78
2022/08/10 12:14:19;;;;;;;1.70;1.30;;;33.10;25.40;;;;;;929927;153;27370;-78
2022/08/10 12:16:46;;;;;;;1.47;1.37;;;33.10;25.30;;;;;;900061;154;27488;-78
2022/08/10 12:19:13;;;;;;;3.20;1.17;;;33.00;25.40;;;;;;945216;151;27378;-78
2022/08/10 12:21:48;;;;;;;1.25;1.10;;;33.10;25.50;;;;;;937190;152;27407;-78
2022/08/10 12:24:17;;;;;;;1.20;1.20;;;33.00;25.50;;;;;;935170;152;27433;-77
2022/08/10 12:26:44;;;;;;;4.62;1.20;;;33.00;25.50;;;;;;936996;153;27372;-77
2022/08/10 12:29:13;;;;;;;1.70;1.20;;;33.00;25.60;;;;;;935829;152;27442;-77
2022/08/10 12:31:40;;;;;;;1.35;1.25;;;33.00;25.70;;;;;;944633;151;27409;-77
2022/08/10 12:34:18;;;;;;;1.50;1.40;;;33.00;25.60;;;;;;944148;151;27834;-77
2022/08/10 12:36:44;;;;;;;5.35;1.40;;;33.00;25.60;;;;;;944439;151;27357;-77
2022/08/10 12:39:14;;;;;;;1.27;1.20;;;33.00;25.60;;;;;;944461;151;27318;-77
2022/08/10 12:41:52;;;;;;;1.40;1.30;;;32.90;26.20;;;;;;943362;151;27350;-77
2022/08/10 12:44:22;;;;;;;1.98;1.22;;;32.90;25.70;;;;;;944367;151;27872;-78
2022/08/10 12:47:00;;;;;;;1.80;1.30;;;32.90;25.70;;;;;;929077;151;27550;-77
2022/08/10 12:49:35;;;;;;;1.55;1.12;;;32.90;25.70;;;;;;944626;151;27259;-77
2022/08/10 12:52:23;;;;;;;1.22;1.12;;;32.90;25.70;;;;;;943544;151;27354;-77
2022/08/10 12:54:50;;;;;;;2.10;1.30;;;32.90;25.80;;;;;;928846;151;28264;-77
2022/08/10 12:57:19;;;;;;;4.97;1.27;;;32.90;25.80;;;;;;943984;151;27355;-77
2022/08/10 12:59:46;;;;;;;1.60;1.20;;;32.80;25.70;;;;;;944499;151;27370;-77
2022/08/10 13:02:12;;;;;;;3.00;1.47;;;32.90;25.80;;;;;;941045;151;27325;-78
2022/08/10 13:04:39;;;;;;;3.42;1.27;;;32.90;25.80;;;;;;942426;149;27398;-77
2022/08/10 13:07:05;;;;;;;1.45;1.17;;;32.90;25.70;;;;;;942419;149;27435;-77
2022/08/10 13:09:32;;;;;;;1.57;1.47;;;32.90;25.70;;;;;;941908;149;27361;-77